sensor_id;sensor_type;location;lat;lon;timestamp;pressure;altitude;pressure_sealevel;temperature;humidity
74422;BME280;62856;51.446;8.360;2023-08-06T00:00:02;96959.13;;;21.57;57.42
74422;BME280;62856;51.446;8.360;2023-08-06T00:02:28;96962.63;;;21.54;57.02
74422;BME280;62856;51.446;8.360;2023-08-06T00:04:53;96964.56;;;21.50;56.87
74422;BME280;62856;51.446;8.360;2023-08-06T00:07:19;96964.94;;;21.48;56.80
74422;BME280;62856;51.446;8.360;2023-08-06T00:09:44;96963.75;;;21.46;56.72
74422;BME280;62856;51.446;8.360;2023-08-06T00:12:09;96964.94;;;21.45;57.08
74422;BME280;62856;51.446;8.360;2023-08-06T00:14:35;96964.94;;;21.45;56.87
74422;BME280;62856;51.446;8.360;2023-08-06T00:17:00;96968.06;;;21.43;56.96
74422;BME280;62856;51.446;8.360;2023-08-06T00:19:25;96968.06;;;21.43;56.88
74422;BME280;62856;51.446;8.360;2023-08-06T00:21:50;96971.59;;;21.44;56.78
74422;BME280;62856;51.446;8.360;2023-08-06T00:24:16;96961.78;;;21.43;56.79
74422;BME280;62856;51.446;8.360;2023-08-06T00:26:41;96957.88;;;21.44;56.83
74422;BME280;62856;51.446;8.360;2023-08-06T00:29:06;96942.19;;;21.44;57.09
74422;BME280;62856;51.446;8.360;2023-08-06T00:31:32;96941.03;;;21.45;57.13
74422;BME280;62856;51.446;8.360;2023-08-06T00:33:57;96938.72;;;21.47;57.12
74422;BME280;62856;51.446;8.360;2023-08-06T00:36:22;96936.00;;;21.51;57.30
74422;BME280;62856;51.446;8.360;2023-08-06T00:38:47;96934.81;;;21.52;57.32
74422;BME280;62856;51.446;8.360;2023-08-06T00:41:13;96930.13;;;21.52;56.90
74422;BME280;62856;51.446;8.360;2023-08-06T00:43:38;96921.09;;;21.52;57.19
74422;BME280;62856;51.446;8.360;2023-08-06T00:46:04;96923.84;;;21.52;57.12
74422;BME280;62856;51.446;8.360;2023-08-06T00:48:29;96927.38;;;21.52;57.21
74422;BME280;62856;51.446;8.360;2023-08-06T00:50:55;96921.09;;;21.52;57.09
74422;BME280;62856;51.446;8.360;2023-08-06T00:53:20;96926.56;;;21.52;57.07
74422;BME280;62856;51.446;8.360;2023-08-06T00:55:45;96934.81;;;21.52;57.13
74422;BME280;62856;51.446;8.360;2023-08-06T00:58:12;96917.94;;;21.50;57.28
74422;BME280;62856;51.446;8.360;2023-08-06T01:00:38;96916.81;;;21.54;56.87
74422;BME280;62856;51.446;8.360;2023-08-06T01:03:04;96903.88;;;21.55;57.33
74422;BME280;62856;51.446;8.360;2023-08-06T01:05:29;96904.25;;;21.53;56.93
74422;BME280;62856;51.446;8.360;2023-08-06T01:08:19;96901.91;;;21.52;56.98
74422;BME280;62856;51.446;8.360;2023-08-06T01:13:37;96901.91;;;21.52;57.37
74422;BME280;62856;51.446;8.360;2023-08-06T01:16:07;96898.00;;;21.53;57.10
74422;BME280;62856;51.446;8.360;2023-08-06T01:18:34;96889.72;;;21.49;57.09
74422;BME280;62856;51.446;8.360;2023-08-06T01:21:00;96897.94;;;21.49;57.03
74422;BME280;62856;51.446;8.360;2023-08-06T01:23:25;96890.91;;;21.48;57.28
74422;BME280;62856;51.446;8.360;2023-08-06T01:28:42;96889.69;;;21.46;56.87
74422;BME280;62856;51.446;8.360;2023-08-06T01:31:14;96874.03;;;21.46;57.04
74422;BME280;62856;51.446;8.360;2023-08-06T01:33:43;96880.31;;;21.47;57.19
74422;BME280;62856;51.446;8.360;2023-08-06T01:36:10;96878.75;;;21.46;57.09
74422;BME280;62856;51.446;8.360;2023-08-06T01:38:36;96873.25;;;21.46;57.25
74422;BME280;62856;51.446;8.360;2023-08-06T01:41:01;96872.50;;;21.49;57.16
74422;BME280;62856;51.446;8.360;2023-08-06T01:43:26;96874.06;;;21.50;57.33
74422;BME280;62856;51.446;8.360;2023-08-06T01:45:52;96869.00;;;21.52;57.19
74422;BME280;62856;51.446;8.360;2023-08-06T01:48:17;96875.28;;;21.52;57.32
74422;BME280;62856;51.446;8.360;2023-08-06T01:50:42;96868.19;;;21.51;57.32
74422;BME280;62856;51.446;8.360;2023-08-06T01:53:07;96871.34;;;21.53;57.37
74422;BME280;62856;51.446;8.360;2023-08-06T01:55:33;96858.44;;;21.54;57.45
74422;BME280;62856;51.446;8.360;2023-08-06T01:57:58;96851.38;;;21.53;57.33
74422;BME280;62856;51.446;8.360;2023-08-06T02:00:23;96859.97;;;21.55;57.45
74422;BME280;62856;51.446;8.360;2023-08-06T02:02:49;96846.25;;;21.51;57.55
74422;BME280;62856;51.446;8.360;2023-08-06T02:05:14;96842.75;;;21.54;57.53
74422;BME280;62856;51.446;8.360;2023-08-06T02:07:39;96829.06;;;21.54;57.45
74422;BME280;62856;51.446;8.360;2023-08-06T02:10:05;96825.13;;;21.55;57.36
74422;BME280;62856;51.446;8.360;2023-08-06T02:12:30;96824.31;;;21.55;57.51
74422;BME280;62856;51.446;8.360;2023-08-06T02:14:56;96820.44;;;21.56;57.25
74422;BME280;62856;51.446;8.360;2023-08-06T02:17:21;96819.25;;;21.57;57.51
74422;BME280;62856;51.446;8.360;2023-08-06T02:19:47;96836.50;;;21.57;57.24
74422;BME280;62856;51.446;8.360;2023-08-06T02:22:12;96822.38;;;21.55;57.40
74422;BME280;62856;51.446;8.360;2023-08-06T02:24:40;96830.59;;;21.55;57.45
74422;BME280;62856;51.446;8.360;2023-08-06T02:27:06;96832.56;;;21.55;57.48
74422;BME280;62856;51.446;8.360;2023-08-06T02:29:31;96828.25;;;21.54;57.45
74422;BME280;62856;51.446;8.360;2023-08-06T02:31:57;96829.47;;;21.56;57.54
74422;BME280;62856;51.446;8.360;2023-08-06T02:34:22;96828.28;;;21.57;57.00
74422;BME280;62856;51.446;8.360;2023-08-06T02:36:47;96828.66;;;21.56;57.43
74422;BME280;62856;51.446;8.360;2023-08-06T02:39:12;96831.41;;;21.56;57.59
74422;BME280;62856;51.446;8.360;2023-08-06T02:41:38;96830.59;;;21.55;57.67
74422;BME280;62856;51.446;8.360;2023-08-06T02:44:03;96825.91;;;21.52;57.49
74422;BME280;62856;51.446;8.360;2023-08-06T02:46:29;96814.13;;;21.52;57.71
74422;BME280;62856;51.446;8.360;2023-08-06T02:48:54;96816.09;;;21.51;57.52
74422;BME280;62856;51.446;8.360;2023-08-06T02:51:19;96816.47;;;21.50;57.52
74422;BME280;62856;51.446;8.360;2023-08-06T02:53:45;96811.00;;;21.50;57.63
74422;BME280;62856;51.446;8.360;2023-08-06T02:56:10;96807.44;;;21.46;57.52
74422;BME280;62856;51.446;8.360;2023-08-06T02:58:35;96809.03;;;21.47;57.63
74422;BME280;62856;51.446;8.360;2023-08-06T03:01:05;96806.69;;;21.45;57.65
74422;BME280;62856;51.446;8.360;2023-08-06T03:03:32;96805.88;;;21.45;57.46
74422;BME280;62856;51.446;8.360;2023-08-06T03:05:57;96803.13;;;21.45;57.75
74422;BME280;62856;51.446;8.360;2023-08-06T03:08:23;96801.97;;;21.46;57.70
74422;BME280;62856;51.446;8.360;2023-08-06T03:10:49;96807.44;;;21.46;57.71
74422;BME280;62856;51.446;8.360;2023-08-06T03:13:18;96802.75;;;21.46;57.75
74422;BME280;62856;51.446;8.360;2023-08-06T03:15:57;96798.47;;;21.49;57.63
74422;BME280;62856;51.446;8.360;2023-08-06T03:18:23;96782.41;;;21.47;57.85
74422;BME280;62856;51.446;8.360;2023-08-06T03:20:50;96786.69;;;21.48;57.68
74422;BME280;62856;51.446;8.360;2023-08-06T03:23:16;96788.25;;;21.49;57.85
74422;BME280;62856;51.446;8.360;2023-08-06T03:25:41;96780.81;;;21.50;57.85
74422;BME280;62856;51.446;8.360;2023-08-06T03:28:07;96777.28;;;21.49;57.82
74422;BME280;62856;51.446;8.360;2023-08-06T03:30:32;96769.84;;;21.46;57.58
74422;BME280;62856;51.446;8.360;2023-08-06T03:32:57;96774.53;;;21.46;57.78
74422;BME280;62856;51.446;8.360;2023-08-06T03:35:23;96772.19;;;21.44;57.29
74422;BME280;62856;51.446;8.360;2023-08-06T03:37:48;96772.56;;;21.39;57.17
74422;BME280;62856;51.446;8.360;2023-08-06T03:40:15;96770.59;;;21.36;57.40
74422;BME280;62856;51.446;8.360;2023-08-06T03:42:40;96772.13;;;21.33;57.52
74422;BME280;62856;51.446;8.360;2023-08-06T03:45:06;96774.47;;;21.31;57.43
74422;BME280;62856;51.446;8.360;2023-08-06T03:47:32;96768.59;;;21.29;57.32
74422;BME280;62856;51.446;8.360;2023-08-06T03:49:57;96763.50;;;21.28;57.72
74422;BME280;62856;51.446;8.360;2023-08-06T03:52:23;96766.63;;;21.26;57.58
74422;BME280;62856;51.446;8.360;2023-08-06T03:54:48;96764.28;;;21.25;57.50
74422;BME280;62856;51.446;8.360;2023-08-06T03:57:14;96754.88;;;21.26;57.62
74422;BME280;62856;51.446;8.360;2023-08-06T03:59:39;96759.56;;;21.25;57.55
74422;BME280;62856;51.446;8.360;2023-08-06T04:02:04;96754.88;;;21.26;57.63
74422;BME280;62856;51.446;8.360;2023-08-06T04:04:30;96756.06;;;21.28;57.91
74422;BME280;62856;51.446;8.360;2023-08-06T04:06:55;96765.09;;;21.29;57.65
74422;BME280;62856;51.446;8.360;2023-08-06T04:09:20;96756.47;;;21.30;57.66
74422;BME280;62856;51.446;8.360;2023-08-06T04:11:46;96747.06;;;21.31;57.68
74422;BME280;62856;51.446;8.360;2023-08-06T04:14:11;96751.38;;;21.29;57.42
74422;BME280;62856;51.446;8.360;2023-08-06T04:16:36;96741.56;;;21.28;57.40
74422;BME280;62856;51.446;8.360;2023-08-06T04:19:02;96749.41;;;21.29;57.75
74422;BME280;62856;51.446;8.360;2023-08-06T04:21:27;96743.50;;;21.27;57.42
74422;BME280;62856;51.446;8.360;2023-08-06T04:23:52;96749.38;;;21.26;57.51
74422;BME280;62856;51.446;8.360;2023-08-06T04:26:18;96730.59;;;21.24;57.67
74422;BME280;62856;51.446;8.360;2023-08-06T04:28:43;96740.38;;;21.25;57.62
74422;BME280;62856;51.446;8.360;2023-08-06T04:31:08;96738.41;;;21.26;57.55
74422;BME280;62856;51.446;8.360;2023-08-06T04:33:34;96728.22;;;21.23;57.61
74422;BME280;62856;51.446;8.360;2023-08-06T04:35:59;96738.00;;;21.24;57.50
74422;BME280;62856;51.446;8.360;2023-08-06T04:38:25;96742.31;;;21.21;57.35
74422;BME280;62856;51.446;8.360;2023-08-06T04:40:51;96743.09;;;21.22;57.55
74422;BME280;62856;51.446;8.360;2023-08-06T04:43:16;96748.97;;;21.24;57.71
74422;BME280;62856;51.446;8.360;2023-08-06T04:45:51;96744.28;;;21.24;57.69
74422;BME280;62856;51.446;8.360;2023-08-06T04:48:18;96740.78;;;21.27;57.66
74422;BME280;62856;51.446;8.360;2023-08-06T04:50:47;96742.38;;;21.32;57.64
74422;BME280;62856;51.446;8.360;2023-08-06T04:53:13;96737.69;;;21.33;57.83
74422;BME280;62856;51.446;8.360;2023-08-06T04:55:39;96735.31;;;21.34;57.77
74422;BME280;62856;51.446;8.360;2023-08-06T04:58:05;96736.91;;;21.39;57.60
74422;BME280;62856;51.446;8.360;2023-08-06T05:00:30;96736.91;;;21.39;57.59
74422;BME280;62856;51.446;8.360;2023-08-06T05:02:56;96747.50;;;21.41;57.63
74422;BME280;62856;51.446;8.360;2023-08-06T05:05:21;96744.75;;;21.41;57.46
74422;BME280;62856;51.446;8.360;2023-08-06T05:07:49;96747.09;;;21.42;57.35
74422;BME280;62856;51.446;8.360;2023-08-06T05:10:14;96745.16;;;21.43;57.23
74422;BME280;62856;51.446;8.360;2023-08-06T05:12:40;96753.38;;;21.43;57.32
74422;BME280;62856;51.446;8.360;2023-08-06T05:15:06;96755.72;;;21.44;57.24
74422;BME280;62856;51.446;8.360;2023-08-06T05:17:31;96756.13;;;21.43;57.23
74422;BME280;62856;51.446;8.360;2023-08-06T05:19:56;96755.31;;;21.42;57.28
74422;BME280;62856;51.446;8.360;2023-08-06T05:22:22;96755.31;;;21.42;57.30
74422;BME280;62856;51.446;8.360;2023-08-06T05:24:47;96755.72;;;21.44;57.19
74422;BME280;62856;51.446;8.360;2023-08-06T05:27:13;96751.03;;;21.45;57.17
74422;BME280;62856;51.446;8.360;2023-08-06T05:29:38;96757.34;;;21.49;57.42
74422;BME280;62856;51.446;8.360;2023-08-06T05:32:04;96753.41;;;21.50;57.41
74422;BME280;62856;51.446;8.360;2023-08-06T05:34:29;96751.06;;;21.52;57.21
74422;BME280;62856;51.446;8.360;2023-08-06T05:36:54;96752.66;;;21.53;57.23
74422;BME280;62856;51.446;8.360;2023-08-06T05:39:20;96744.44;;;21.53;57.29
74422;BME280;62856;51.446;8.360;2023-08-06T05:41:45;96750.28;;;21.55;57.05
74422;BME280;62856;51.446;8.360;2023-08-06T05:44:10;96744.44;;;21.56;57.12
74422;BME280;62856;51.446;8.360;2023-08-06T05:46:36;96744.03;;;21.58;57.17
74422;BME280;62856;51.446;8.360;2023-08-06T05:49:01;96747.59;;;21.62;57.19
74422;BME280;62856;51.446;8.360;2023-08-06T05:51:26;96742.47;;;21.64;57.08
74422;BME280;62856;51.446;8.360;2023-08-06T05:53:52;96756.59;;;21.69;57.18
74422;BME280;62856;51.446;8.360;2023-08-06T05:56:17;96749.59;;;21.75;57.01
74422;BME280;62856;51.446;8.360;2023-08-06T05:58:43;96748.78;;;21.78;56.67
74422;BME280;62856;51.446;8.360;2023-08-06T06:01:08;96761.38;;;21.79;56.60
74422;BME280;62856;51.446;8.360;2023-08-06T06:03:33;96755.50;;;21.81;56.60
74422;BME280;62856;51.446;8.360;2023-08-06T06:08:26;96758.25;;;21.81;56.62
74422;BME280;62856;51.446;8.360;2023-08-06T06:10:51;96771.19;;;21.84;56.56
74422;BME280;62856;51.446;8.360;2023-08-06T06:13:16;96769.25;;;21.84;56.36
74422;BME280;62856;51.446;8.360;2023-08-06T06:15:41;96766.50;;;21.84;56.45
74422;BME280;62856;51.446;8.360;2023-08-06T06:18:07;96773.56;;;21.85;56.40
74422;BME280;62856;51.446;8.360;2023-08-06T06:20:32;96769.63;;;21.86;56.02
74422;BME280;62856;51.446;8.360;2023-08-06T06:22:58;96780.59;;;21.86;56.00
74422;BME280;62856;51.446;8.360;2023-08-06T06:25:24;96777.47;;;21.88;55.88
74422;BME280;62856;51.446;8.360;2023-08-06T06:27:49;96777.88;;;21.90;55.77
74422;BME280;62856;51.446;8.360;2023-08-06T06:30:15;96780.63;;;21.90;55.56
74422;BME280;62856;51.446;8.360;2023-08-06T06:32:40;96780.22;;;21.91;55.11
74422;BME280;62856;51.446;8.360;2023-08-06T06:35:06;96786.50;;;21.95;55.10
74422;BME280;62856;51.446;8.360;2023-08-06T06:37:31;96778.69;;;21.97;55.12
74422;BME280;62856;51.446;8.360;2023-08-06T06:39:57;96775.53;;;21.99;55.46
74422;BME280;62856;51.446;8.360;2023-08-06T06:42:22;96777.13;;;22.00;55.46
74422;BME280;62856;51.446;8.360;2023-08-06T06:44:48;96771.25;;;22.01;55.87
74422;BME280;62856;51.446;8.360;2023-08-06T06:47:14;96776.34;;;22.06;55.32
74422;BME280;62856;51.446;8.360;2023-08-06T06:49:42;96774.81;;;22.12;55.68
74422;BME280;62856;51.446;8.360;2023-08-06T06:52:07;96774.41;;;22.21;56.01
74422;BME280;62856;51.446;8.360;2023-08-06T06:54:33;96777.19;;;22.28;56.67
74422;BME280;62856;51.446;8.360;2023-08-06T06:56:58;96783.47;;;22.36;56.13
74422;BME280;62856;51.446;8.360;2023-08-06T06:59:23;96776.78;;;22.40;56.44
74422;BME280;62856;51.446;8.360;2023-08-06T07:01:49;96771.69;;;22.46;56.62
74422;BME280;62856;51.446;8.360;2023-08-06T07:04:14;96777.97;;;22.46;55.42
74422;BME280;62856;51.446;8.360;2023-08-06T07:06:39;96775.22;;;22.50;54.55
74422;BME280;62856;51.446;8.360;2023-08-06T07:09:05;96771.69;;;22.49;54.45
74422;BME280;62856;51.446;8.360;2023-08-06T07:11:31;96770.94;;;22.49;54.31
74422;BME280;62856;51.446;8.360;2023-08-06T07:13:57;96776.41;;;22.45;54.26
74422;BME280;62856;51.446;8.360;2023-08-06T07:16:25;96768.94;;;22.42;54.49
74422;BME280;62856;51.446;8.360;2023-08-06T07:18:52;96773.28;;;22.40;54.59
74422;BME280;62856;51.446;8.360;2023-08-06T07:21:18;96767.00;;;22.36;54.24
74422;BME280;62856;51.446;8.360;2023-08-06T07:23:43;96770.88;;;22.31;54.50
74422;BME280;62856;51.446;8.360;2023-08-06T07:26:08;96770.13;;;22.27;54.45
74422;BME280;62856;51.446;8.360;2023-08-06T07:28:34;96765.41;;;22.24;54.63
74422;BME280;62856;51.446;8.360;2023-08-06T07:31:00;96763.03;;;22.22;55.17
74422;BME280;62856;51.446;8.360;2023-08-06T07:33:25;96765.00;;;22.25;55.73
74422;BME280;62856;51.446;8.360;2023-08-06T07:35:50;96769.72;;;22.28;55.85
74422;BME280;62856;51.446;8.360;2023-08-06T07:38:16;96767.00;;;22.32;55.97
74422;BME280;62856;51.446;8.360;2023-08-06T07:40:41;96765.41;;;22.34;55.58
74422;BME280;62856;51.446;8.360;2023-08-06T07:43:07;96769.75;;;22.39;55.89
74422;BME280;62856;51.446;8.360;2023-08-06T07:45:33;96774.03;;;22.40;55.83
74422;BME280;62856;51.446;8.360;2023-08-06T07:47:59;96753.25;;;22.43;55.59
74422;BME280;62856;51.446;8.360;2023-08-06T07:50:25;96761.09;;;22.44;55.30
74422;BME280;62856;51.446;8.360;2023-08-06T07:52:50;96757.59;;;22.47;55.04
74422;BME280;62856;51.446;8.360;2023-08-06T07:55:15;96768.56;;;22.51;54.79
74422;BME280;62856;51.446;8.360;2023-08-06T07:57:41;96763.09;;;22.54;54.83
74422;BME280;62856;51.446;8.360;2023-08-06T08:00:06;96757.22;;;22.59;54.44
74422;BME280;62856;51.446;8.360;2023-08-06T08:02:32;96755.25;;;22.63;54.37
74422;BME280;62856;51.446;8.360;2023-08-06T08:04:57;96756.81;;;22.71;54.44
74422;BME280;62856;51.446;8.360;2023-08-06T08:07:23;96755.63;;;22.83;54.12
74422;BME280;62856;51.446;8.360;2023-08-06T08:09:48;96754.44;;;22.94;53.44
74422;BME280;62856;51.446;8.360;2023-08-06T08:12:13;96754.44;;;22.98;53.28
74422;BME280;62856;51.446;8.360;2023-08-06T08:14:39;96748.16;;;22.97;53.39
74422;BME280;62856;51.446;8.360;2023-08-06T08:17:05;96745.41;;;22.94;53.02
74422;BME280;62856;51.446;8.360;2023-08-06T08:19:31;96751.31;;;22.92;53.17
74422;BME280;62856;51.446;8.360;2023-08-06T08:21:56;96750.13;;;22.86;53.26
74422;BME280;62856;51.446;8.360;2023-08-06T08:24:22;96750.94;;;22.83;53.30
74422;BME280;62856;51.446;8.360;2023-08-06T08:26:52;96744.63;;;22.83;53.23
74422;BME280;62856;51.446;8.360;2023-08-06T08:29:18;96744.25;;;22.84;53.32
74422;BME280;62856;51.446;8.360;2023-08-06T08:31:44;96748.56;;;22.85;53.15
74422;BME280;62856;51.446;8.360;2023-08-06T08:34:09;96738.72;;;22.91;52.48
74422;BME280;62856;51.446;8.360;2023-08-06T08:36:35;96743.84;;;22.96;52.85
74422;BME280;62856;51.446;8.360;2023-08-06T08:39:00;96742.63;;;23.04;52.57
74422;BME280;62856;51.446;8.360;2023-08-06T08:41:28;96748.09;;;23.18;52.15
74422;BME280;62856;51.446;8.360;2023-08-06T08:43:55;96740.97;;;23.53;51.21
74422;BME280;62856;51.446;8.360;2023-08-06T08:46:22;96741.50;;;23.99;50.82
74422;BME280;62856;51.446;8.360;2023-08-06T08:48:47;96737.97;;;24.53;49.42
74422;BME280;62856;51.446;8.360;2023-08-06T08:51:13;96738.50;;;24.89;48.67
74422;BME280;62856;51.446;8.360;2023-08-06T08:53:39;96734.94;;;25.25;47.82
74422;BME280;62856;51.446;8.360;2023-08-06T08:56:07;96741.97;;;25.34;47.94
74422;BME280;62856;51.446;8.360;2023-08-06T08:58:33;96728.78;;;25.14;48.28
74422;BME280;62856;51.446;8.360;2023-08-06T09:00:58;96727.78;;;24.98;48.93
74422;BME280;62856;51.446;8.360;2023-08-06T09:03:24;96735.81;;;24.78;49.19
74422;BME280;62856;51.446;8.360;2023-08-06T09:05:53;96734.41;;;24.60;49.57
74422;BME280;62856;51.446;8.360;2023-08-06T09:08:23;96732.13;;;24.48;49.73
74422;BME280;62856;51.446;8.360;2023-08-06T09:10:50;96747.06;;;24.50;49.51
74422;BME280;62856;51.446;8.360;2023-08-06T09:13:16;96744.56;;;24.66;49.10
74422;BME280;62856;51.446;8.360;2023-08-06T09:15:41;96739.47;;;24.65;49.40
74422;BME280;62856;51.446;8.360;2023-08-06T09:18:10;96745.91;;;24.48;49.76
74422;BME280;62856;51.446;8.360;2023-08-06T09:20:37;96743.28;;;24.30;49.80
74422;BME280;62856;51.446;8.360;2023-08-06T09:23:09;96746.91;;;24.16;50.28
74422;BME280;62856;51.446;8.360;2023-08-06T09:25:38;96750.94;;;24.05;50.16
74422;BME280;62856;51.446;8.360;2023-08-06T09:28:05;96746.63;;;23.93;50.34
74422;BME280;62856;51.446;8.360;2023-08-06T09:30:32;96745.50;;;23.84;50.62
74422;BME280;62856;51.446;8.360;2023-08-06T09:32:58;96738.88;;;23.74;50.93
74422;BME280;62856;51.446;8.360;2023-08-06T09:35:23;96748.72;;;23.72;50.75
74422;BME280;62856;51.446;8.360;2023-08-06T09:37:49;96748.72;;;23.72;50.38
74422;BME280;62856;51.446;8.360;2023-08-06T09:40:28;96745.94;;;23.79;50.44
74422;BME280;62856;51.446;8.360;2023-08-06T09:42:55;96748.97;;;24.02;50.12
74422;BME280;62856;51.446;8.360;2023-08-06T09:45:21;96745.50;;;24.49;49.46
74422;BME280;62856;51.446;8.360;2023-08-06T09:47:50;96745.13;;;24.95;48.58
74422;BME280;62856;51.446;8.360;2023-08-06T09:50:17;96744.25;;;25.42;47.54
74422;BME280;62856;51.446;8.360;2023-08-06T09:52:43;96747.25;;;25.55;46.97
74422;BME280;62856;51.446;8.360;2023-08-06T09:55:11;96752.78;;;26.15;45.72
74422;BME280;62856;51.446;8.360;2023-08-06T09:57:37;96747.97;;;26.95;44.18
74422;BME280;62856;51.446;8.360;2023-08-06T10:00:03;96749.81;;;27.25;43.20
74422;BME280;62856;51.446;8.360;2023-08-06T10:02:31;96746.06;;;26.92;43.34
74422;BME280;62856;51.446;8.360;2023-08-06T10:04:58;96749.88;;;26.52;44.32
74422;BME280;62856;51.446;8.360;2023-08-06T10:07:24;96755.25;;;26.09;45.14
74422;BME280;62856;51.446;8.360;2023-08-06T10:09:49;96752.19;;;25.70;46.34
74422;BME280;62856;51.446;8.360;2023-08-06T10:12:15;96747.44;;;25.37;46.90
74422;BME280;62856;51.446;8.360;2023-08-06T10:14:43;96750.56;;;25.05;47.69
74422;BME280;62856;51.446;8.360;2023-08-06T10:17:10;96751.19;;;24.79;48.24
74422;BME280;62856;51.446;8.360;2023-08-06T10:19:36;96750.59;;;24.54;49.05
74422;BME280;62856;51.446;8.360;2023-08-06T10:22:15;96742.09;;;24.31;50.20
74422;BME280;62856;51.446;8.360;2023-08-06T10:27:11;96760.78;;;23.95;52.26
74422;BME280;62856;51.446;8.360;2023-08-06T10:29:37;96768.34;;;23.81;52.70
74422;BME280;62856;51.446;8.360;2023-08-06T10:32:03;96757.41;;;23.67;53.10
74422;BME280;62856;51.446;8.360;2023-08-06T10:34:55;96775.09;;;23.59;53.80
74422;BME280;62856;51.446;8.360;2023-08-06T10:37:21;96776.69;;;23.49;54.43
74422;BME280;62856;51.446;8.360;2023-08-06T10:39:49;96780.28;;;23.39;55.07
74422;BME280;62856;51.446;8.360;2023-08-06T10:42:29;96785.81;;;23.32;55.16
74422;BME280;62856;51.446;8.360;2023-08-06T10:45:14;96788.16;;;23.26;55.49
74422;BME280;62856;51.446;8.360;2023-08-06T10:47:41;96780.72;;;23.23;56.13
74422;BME280;62856;51.446;8.360;2023-08-06T10:50:10;96787.38;;;23.22;55.95
74422;BME280;62856;51.446;8.360;2023-08-06T10:52:36;96785.81;;;23.21;55.96
74422;BME280;62856;51.446;8.360;2023-08-06T10:55:01;96777.16;;;23.23;55.98
74422;BME280;62856;51.446;8.360;2023-08-06T10:57:26;96771.66;;;23.26;55.85
74422;BME280;62856;51.446;8.360;2023-08-06T10:59:52;96774.03;;;23.32;55.84
74422;BME280;62856;51.446;8.360;2023-08-06T11:02:17;96776.75;;;23.39;55.36
74422;BME280;62856;51.446;8.360;2023-08-06T11:04:43;96779.47;;;23.46;55.38
74422;BME280;62856;51.446;8.360;2023-08-06T11:07:08;96773.94;;;23.60;54.99
74422;BME280;62856;51.446;8.360;2023-08-06T11:09:33;96770.63;;;23.93;54.25
74422;BME280;62856;51.446;8.360;2023-08-06T11:11:59;96771.69;;;24.16;53.50
74422;BME280;62856;51.446;8.360;2023-08-06T11:14:24;96777.91;;;24.27;53.78
74422;BME280;62856;51.446;8.360;2023-08-06T11:16:50;96768.50;;;24.25;53.71
74422;BME280;62856;51.446;8.360;2023-08-06T11:19:15;96772.06;;;24.18;54.20
74422;BME280;62856;51.446;8.360;2023-08-06T11:21:42;96783.53;;;24.10;54.56
74422;BME280;62856;51.446;8.360;2023-08-06T11:24:10;96779.25;;;23.98;54.99
74422;BME280;62856;51.446;8.360;2023-08-06T11:26:36;96779.31;;;23.88;55.29
74422;BME280;62856;51.446;8.360;2023-08-06T11:29:02;96783.69;;;23.75;55.46
74422;BME280;62856;51.446;8.360;2023-08-06T11:31:28;96785.69;;;23.64;56.22
74422;BME280;62856;51.446;8.360;2023-08-06T11:33:55;96777.88;;;23.52;56.53
74422;BME280;62856;51.446;8.360;2023-08-06T11:36:36;96778.72;;;23.45;56.77
74422;BME280;62856;51.446;8.360;2023-08-06T11:39:02;96785.41;;;23.37;57.19
74422;BME280;62856;51.446;8.360;2023-08-06T11:41:35;96783.88;;;23.29;57.45
74422;BME280;62856;51.446;8.360;2023-08-06T11:44:03;96779.53;;;23.21;57.75
74422;BME280;62856;51.446;8.360;2023-08-06T11:46:28;96789.75;;;23.17;58.20
74422;BME280;62856;51.446;8.360;2023-08-06T11:48:55;96783.06;;;23.11;58.13
74422;BME280;62856;51.446;8.360;2023-08-06T11:51:27;96782.31;;;23.07;58.46
74422;BME280;62856;51.446;8.360;2023-08-06T11:53:59;96777.97;;;23.02;58.36
74422;BME280;62856;51.446;8.360;2023-08-06T11:56:25;96774.44;;;22.98;58.20
74422;BME280;62856;51.446;8.360;2023-08-06T11:58:51;96778.78;;;22.99;57.81
74422;BME280;62856;51.446;8.360;2023-08-06T12:01:17;96773.28;;;22.99;57.66
74422;BME280;62856;51.446;8.360;2023-08-06T12:03:43;96772.09;;;23.00;57.60
74422;BME280;62856;51.446;8.360;2023-08-06T12:06:08;96770.53;;;23.03;57.24
74422;BME280;62856;51.446;8.360;2023-08-06T12:08:34;96773.25;;;23.06;57.09
74422;BME280;62856;51.446;8.360;2023-08-06T12:10:59;96765.81;;;23.10;56.70
74422;BME280;62856;51.446;8.360;2023-08-06T12:13:25;96772.44;;;23.16;56.53
74422;BME280;62856;51.446;8.360;2023-08-06T12:15:50;96770.47;;;23.24;56.36
74422;BME280;62856;51.446;8.360;2023-08-06T12:18:19;96771.66;;;23.34;55.98
74422;BME280;62856;51.446;8.360;2023-08-06T12:20:45;96764.97;;;23.42;55.39
74422;BME280;62856;51.446;8.360;2023-08-06T12:23:10;96766.09;;;23.48;55.43
74422;BME280;62856;51.446;8.360;2023-08-06T12:25:35;96768.84;;;23.48;54.83
74422;BME280;62856;51.446;8.360;2023-08-06T12:28:00;96766.91;;;23.45;55.16
74422;BME280;62856;51.446;8.360;2023-08-06T12:30:26;96764.97;;;23.38;55.20
74422;BME280;62856;51.446;8.360;2023-08-06T12:32:51;96760.25;;;23.28;55.17
74422;BME280;62856;51.446;8.360;2023-08-06T12:35:17;96778.34;;;23.33;55.70
74422;BME280;62856;51.446;8.360;2023-08-06T12:37:42;96772.88;;;23.29;55.43
74422;BME280;62856;51.446;8.360;2023-08-06T12:40:09;96775.97;;;23.27;55.48
74422;BME280;62856;51.446;8.360;2023-08-06T12:42:34;96787.34;;;23.26;55.47
74422;BME280;62856;51.446;8.360;2023-08-06T12:45:00;96795.22;;;23.20;55.63
74422;BME280;62856;51.446;8.360;2023-08-06T12:47:25;96792.88;;;23.19;55.65
74422;BME280;62856;51.446;8.360;2023-08-06T12:49:50;96800.34;;;23.18;55.74
74422;BME280;62856;51.446;8.360;2023-08-06T12:52:16;96796.81;;;23.14;55.94
74422;BME280;62856;51.446;8.360;2023-08-06T12:54:42;96802.31;;;23.11;55.81
74422;BME280;62856;51.446;8.360;2023-08-06T12:57:08;96800.75;;;23.10;55.78
74422;BME280;62856;51.446;8.360;2023-08-06T12:59:33;96806.25;;;23.06;56.02
74422;BME280;62856;51.446;8.360;2023-08-06T13:02:00;96802.72;;;23.06;56.02
74422;BME280;62856;51.446;8.360;2023-08-06T13:04:25;96804.69;;;23.02;56.04